Time;durP1;ratioP1;P1;durP2;ratioP2;P2;SDS_P1;SDS_P2;PMS_P1;PMS_P2;Temp;Humidity;BMP_temperature;BMP_pressure;BME280_temperature;BME280_humidity;BME280_pressure;Samples;Min_cycle;Max_cycle;Signal;HPM_P1;HPM_P2
2021/10/28 00:13:38;;;;;;;;;25.50;16.00;;;;;13.20;80.31;101575.56;5056461;28;45405;-58
2021/10/28 00:16:24;;;;;;;;;19.75;16.00;;;;;13.19;80.18;101559.94;5050433;28;45473;-59
2021/10/28 00:18:55;;;;;;;;;21.50;16.00;;;;;13.17;80.33;101559.94;5051871;28;45268;-59
2021/10/28 00:21:20;;;;;;;;;18.50;14.00;;;;;13.16;80.26;101557.38;5052487;28;45439;-58
2021/10/28 00:23:49;;;;;;;;;13.50;12.00;;;;;13.15;80.19;101555.66;5054370;28;45383;-59
2021/10/28 00:26:15;;;;;;;;;15.50;14.50;;;;;13.14;80.18;101554.81;5054389;28;45455;-59
2021/10/28 00:28:41;;;;;;;;;21.50;18.75;;;;;13.09;80.53;101544.50;5062385;28;45399;-58
2021/10/28 00:31:07;;;;;;;;;18.25;18.00;;;;;13.12;80.38;101547.91;5062141;28;45958;-59
2021/10/28 00:33:34;;;;;;;;;20.50;15.50;;;;;13.12;80.44;101540.09;5062485;28;45294;-59
2021/10/28 00:36:03;;;;;;;;;18.00;13.00;;;;;13.12;80.70;101532.25;5057138;28;45495;-59
2021/10/28 00:38:30;;;;;;;;;15.00;13.75;;;;;13.09;80.33;101531.44;5056726;28;45516;-59
2021/10/28 00:40:55;;;;;;;;;19.50;16.00;;;;;13.09;80.73;101533.19;5039934;28;47522;-59
2021/10/28 00:43:22;;;;;;;;;18.50;14.00;;;;;13.07;80.58;101522.81;5056603;28;45341;-59
2021/10/28 00:45:51;;;;;;;;;17.00;16.25;;;;;13.05;80.79;101524.59;5051357;28;45297;-58
2021/10/28 00:48:17;;;;;;;;;17.75;15.75;;;;;13.05;80.93;101519.38;5057372;28;45429;-58
2021/10/28 00:50:43;;;;;;;;;18.75;14.25;;;;;13.04;80.83;101522.03;5060692;28;46974;-58
2021/10/28 00:53:09;;;;;;;;;18.50;15.75;;;;;13.02;81.02;101524.69;5061845;28;45466;-58
2021/10/28 00:55:35;;;;;;;;;19.50;15.50;;;;;13.00;81.27;101525.56;5062378;28;45350;-57
2021/10/28 00:58:02;;;;;;;;;13.25;13.00;;;;;12.97;81.07;101525.66;5061647;28;45347;-57
2021/10/28 01:00:28;;;;;;;;;17.75;14.75;;;;;12.96;81.12;101526.56;5061722;28;46526;-57
2021/10/28 01:02:53;;;;;;;;;18.25;14.00;;;;;12.94;80.93;101515.31;5059023;28;45221;-57
2021/10/28 01:05:18;;;;;;;;;20.50;17.50;;;;;12.91;81.24;101520.59;5062133;28;45228;-57
2021/10/28 01:07:44;;;;;;;;;15.75;14.50;;;;;12.88;81.13;101511.09;5061868;28;45394;-57
2021/10/28 01:10:10;;;;;;;;;16.75;16.50;;;;;12.84;81.21;101512.09;5061820;28;46095;-57
2021/10/28 01:12:35;;;;;;;;;19.00;18.00;;;;;12.82;81.35;101506.06;5061494;28;45297;-57
2021/10/28 01:15:00;;;;;;;;;23.25;19.75;;;;;12.78;81.16;101499.16;5061829;28;46026;-57
2021/10/28 01:17:30;;;;;;;;;25.50;21.50;;;;;12.74;81.43;101494.94;5061043;28;45418;-58
2021/10/28 01:19:55;;;;;;;;;22.00;19.50;;;;;12.71;81.67;101493.25;5060128;28;45769;-57
2021/10/28 01:22:20;;;;;;;;;24.00;20.25;;;;;12.68;81.83;101493.34;5059044;28;45420;-57
2021/10/28 01:24:46;;;;;;;;;26.00;20.00;;;;;12.67;81.70;101493.38;5053710;28;45344;-57
2021/10/28 01:27:11;;;;;;;;;24.75;19.50;;;;;12.64;82.03;101490.84;5060819;28;45378;-57
2021/10/28 01:29:37;;;;;;;;;23.00;20.00;;;;;12.60;81.94;101484.81;5061577;28;45249;-58
2021/10/28 01:32:05;;;;;;;;;25.50;18.75;;;;;12.58;82.18;101486.59;5059818;28;45759;-58
2021/10/28 01:34:30;;;;;;;;;20.00;18.00;;;;;12.54;82.71;101481.50;5061574;28;45336;-58
2021/10/28 01:36:57;;;;;;;;;16.75;16.00;;;;;12.51;82.46;101476.38;5049736;28;45411;-59
2021/10/28 01:39:23;;;;;;;;;24.00;16.00;;;;;12.49;82.79;101477.25;5059326;28;45787;-58
2021/10/28 01:41:54;;;;;;;;;23.25;18.50;;;;;12.47;82.72;101473.84;5058634;28;45433;-59
2021/10/28 01:44:20;;;;;;;;;20.75;18.25;;;;;12.44;83.00;101471.31;5059199;28;45430;-58
2021/10/28 01:46:46;;;;;;;;;21.50;20.00;;;;;12.39;82.84;101459.25;5058614;28;45557;-58
2021/10/28 01:49:32;;;;;;;;;24.50;19.00;;;;;12.38;83.03;101466.22;5049462;28;47127;-58
2021/10/28 01:51:58;;;;;;;;;23.25;21.50;;;;;12.35;83.06;101463.69;5057780;28;45870;-58
2021/10/28 01:54:26;;;;;;;;;22.00;19.50;;;;;12.32;83.29;101463.75;5060567;28;45378;-58
2021/10/28 01:56:52;;;;;;;;;20.25;16.75;;;;;12.30;83.49;101464.69;5060926;28;45351;-58
2021/10/28 01:59:18;;;;;;;;;22.50;15.00;;;;;12.26;83.76;101463.06;5061613;28;46176;-58
2021/10/28 02:01:44;;;;;;;;;20.00;19.00;;;;;12.25;84.03;101463.94;5060462;28;45401;-58
2021/10/28 02:04:11;;;;;;;;;22.25;19.00;;;;;12.24;83.81;101460.50;5059744;28;45228;-58
2021/10/28 02:06:36;;;;;;;;;19.75;15.50;;;;;12.23;83.75;101460.53;5060822;28;45462;-58
2021/10/28 02:09:03;;;;;;;;;18.25;16.25;;;;;12.21;83.83;101455.31;5061910;28;46102;-58
2021/10/28 02:11:28;;;;;;;;;16.50;16.00;;;;;12.21;83.88;101452.72;5061784;28;45337;-58
2021/10/28 02:13:58;;;;;;;;;15.50;13.00;;;;;12.17;84.18;101443.25;5060503;28;45438;-58
2021/10/28 02:16:28;;;;;;;;;17.75;16.00;;;;;12.12;84.31;101437.31;5060330;28;45320;-58
2021/10/28 02:18:54;;;;;;;;;18.50;17.00;;;;;12.11;84.64;101438.19;5060637;28;46196;-58
2021/10/28 02:21:19;;;;;;;;;16.00;15.50;;;;;12.00;84.73;101416.72;5060728;28;45263;-58
2021/10/28 02:23:44;;;;;;;;;16.50;16.50;;;;;12.09;84.43;101429.56;5052654;28;45454;-58
2021/10/28 02:26:10;;;;;;;;;19.50;16.75;;;;;12.07;84.64;101428.75;5059848;28;45379;-58
2021/10/28 02:28:35;;;;;;;;;15.50;15.25;;;;;12.05;84.66;101420.97;5060581;28;45296;-57
2021/10/28 02:31:01;;;;;;;;;20.50;16.50;;;;;12.03;84.67;101414.94;5061413;28;45471;-58
2021/10/28 02:33:26;;;;;;;;;19.75;18.00;;;;;12.05;84.66;101417.50;5060953;28;45747;-57
2021/10/28 02:35:51;;;;;;;;;18.50;16.00;;;;;12.02;84.41;101414.97;5056740;28;45338;-58
2021/10/28 02:38:17;;;;;;;;;16.25;14.25;;;;;11.99;84.83;101415.00;5054229;28;45326;-58
2021/10/28 02:40:42;;;;;;;;;18.00;15.00;;;;;11.87;85.06;101392.72;5060418;28;45341;-58
2021/10/28 02:43:07;;;;;;;;;20.00;15.00;;;;;11.95;85.05;101408.16;5060252;28;45410;-58
2021/10/28 02:45:33;;;;;;;;;14.25;12.25;;;;;11.95;85.11;101405.56;5059188;28;45277;-58
2021/10/28 02:47:58;;;;;;;;;17.25;15.75;;;;;11.94;84.72;101401.25;5060271;28;46212;-58
2021/10/28 02:50:24;;;;;;;;;25.25;16.00;;;;;11.92;85.22;101397.81;5053757;28;45417;-58
2021/10/28 02:52:50;;;;;;;;;15.00;14.50;;;;;11.92;85.28;101390.00;5055482;28;45478;-58
2021/10/28 02:55:16;;;;;;;;;18.75;16.25;;;;;11.90;85.28;101390.03;5059491;28;45510;-59
2021/10/28 02:57:42;;;;;;;;;19.00;16.00;;;;;11.88;85.05;101392.69;5059049;28;46236;-58
2021/10/28 03:00:09;;;;;;;;;19.25;16.00;;;;;11.85;85.40;101384.94;5059554;28;45415;-59
2021/10/28 03:02:35;;;;;;;;;17.50;17.25;;;;;11.84;84.44;101385.84;5058818;28;45367;-58
2021/10/28 03:05:00;;;;;;;;;21.25;17.75;;;;;11.81;85.58;101388.50;5058659;28;45336;-58
2021/10/28 03:07:26;;;;;;;;;18.00;16.75;;;;;11.76;85.42;101374.69;5059824;28;46589;-58
2021/10/28 03:09:51;;;;;;;;;18.00;14.75;;;;;11.77;85.55;101391.16;5059750;28;45419;-58
2021/10/28 03:12:17;;;;;;;;;19.75;17.25;;;;;11.74;86.10;101386.88;5059871;28;45477;-58
2021/10/28 03:25:42;;;;;;;;;15.75;15.25;;;;;11.64;85.90;101380.19;5052122;28;45490;-57
2021/10/28 03:28:14;;;;;;;;;21.25;15.75;;;;;11.60;85.68;101386.31;5058962;28;46870;-57
2021/10/28 03:30:39;;;;;;;;;19.25;15.00;;;;;11.56;85.80;101382.06;5057900;28;45980;-57
2021/10/28 03:33:06;;;;;;;;;22.50;18.25;;;;;11.53;85.50;101376.94;5059267;28;45430;-58
2021/10/28 03:35:32;;;;;;;;;18.25;15.00;;;;;11.51;86.37;101381.31;5057889;28;45351;-58
2021/10/28 03:38:04;;;;;;;;;16.75;15.50;;;;;11.52;86.31;101375.22;5049414;28;46088;-58
2021/10/28 03:41:04;;;;;;;;;29.75;16.00;;;;;11.52;86.17;101362.22;5059401;28;45871;-57
2021/10/28 04:06:12;;;;;;;;;33.75;26.75;;;;;11.39;86.48;101338.16;5058876;28;45425;-59
2021/10/28 04:08:33;;;;;;;;;22.25;20.00;;;;;11.39;86.80;101345.13;5055777;28;45378;-58
2021/10/28 04:29:55;;;;;;;;;24.00;21.50;;;;;11.30;86.84;101346.19;5058640;28;45381;-58
2021/10/28 04:32:20;;;;;;;;;35.75;29.00;;;;;11.29;86.92;101344.47;5058615;28;45286;-58
2021/10/28 04:34:46;;;;;;;;;27.25;20.00;;;;;11.30;86.87;101345.34;5058637;28;45488;-57
2021/10/28 04:37:11;;;;;;;;;22.50;22.25;;;;;11.27;86.72;101341.06;5048590;28;45410;-58
2021/10/28 04:39:37;;;;;;;;;22.00;18.75;;;;;11.25;86.91;101335.88;5061859;28;45400;-58
2021/10/28 04:42:03;;;;;;;;;23.50;19.50;;;;;11.24;87.04;101336.78;5061665;28;45993;-58
2021/10/28 04:44:28;;;;;;;;;20.50;18.50;;;;;11.24;87.22;101346.31;5061983;28;45316;-58
2021/10/28 04:46:54;;;;;;;;;20.50;18.00;;;;;11.24;86.92;101341.13;5061565;28;45265;-58
2021/10/28 04:49:19;;;;;;;;;26.50;20.25;;;;;11.23;87.20;101348.06;5063096;28;45346;-57
2021/10/28 04:51:45;;;;;;;;;21.25;19.25;;;;;11.22;87.17;101345.50;5061058;28;46081;-58
2021/10/28 04:54:11;;;;;;;;;18.50;17.75;;;;;11.19;86.94;101336.00;5061689;28;45386;-58
2021/10/28 04:56:36;;;;;;;;;21.00;18.75;;;;;11.19;87.44;101336.00;5051257;28;45464;-58
2021/10/28 04:59:02;;;;;;;;;19.50;16.25;;;;;11.18;87.33;101338.63;5060865;28;45385;-58
2021/10/28 05:01:28;;;;;;;;;21.75;19.50;;;;;11.17;87.45;101342.97;5060446;28;46163;-59
2021/10/28 05:03:53;;;;;;;;;22.75;19.25;;;;;11.18;87.44;101343.81;5060326;28;45411;-59
2021/10/28 05:06:18;;;;;;;;;26.50;22.25;;;;;11.17;87.27;101340.38;5061477;28;45860;-59
2021/10/28 05:08:44;;;;;;;;;21.50;20.50;;;;;11.14;87.13;101327.44;5061240;28;45496;-59
2021/10/28 05:11:10;;;;;;;;;22.25;20.50;;;;;11.13;87.46;101338.72;5058848;28;46140;-61
2021/10/28 05:13:35;;;;;;;;;20.50;20.00;;;;;11.11;87.31;101345.69;5059211;28;45464;-59
2021/10/28 05:16:01;;;;;;;;;24.00;21.00;;;;;11.10;87.36;101336.19;5058746;28;45602;-59
2021/10/28 05:18:26;;;;;;;;;27.25;21.25;;;;;11.10;87.51;101332.72;5059021;28;45599;-59
2021/10/28 05:20:53;;;;;;;;;21.50;19.75;;;;;11.08;87.40;101339.72;5058728;28;45576;-59
2021/10/28 05:23:18;;;;;;;;;32.25;23.50;;;;;11.03;87.53;101337.22;5054347;28;45565;-59
2021/10/28 05:25:46;;;;;;;;;22.50;22.00;;;;;11.00;87.50;101337.25;5056413;28;45505;-58
2021/10/28 05:28:12;;;;;;;;;23.25;18.50;;;;;10.98;87.92;101339.03;5061475;28;45363;-58
2021/10/28 05:30:37;;;;;;;;;28.50;20.00;;;;;10.94;87.45;101330.44;5060808;28;46220;-58
2021/10/28 05:33:03;;;;;;;;;20.75;19.50;;;;;10.92;87.91;101337.41;5061385;28;45252;-58
2021/10/28 05:35:28;;;;;;;;;21.75;19.50;;;;;10.90;88.21;101330.53;5060075;28;45816;-58
2021/10/28 05:37:54;;;;;;;;;30.00;21.50;;;;;10.87;88.00;101338.38;5050678;28;45521;-58
2021/10/28 05:40:20;;;;;;;;;27.50;22.25;;;;;10.88;87.91;101337.50;5060950;28;46187;-59
2021/10/28 05:42:49;;;;;;;;;28.75;25.75;;;;;10.87;88.09;101336.63;5060875;28;45174;-61
2021/10/28 05:45:16;;;;;;;;;27.75;24.50;;;;;10.84;87.72;101338.44;5060715;28;45288;-63
2021/10/28 05:47:41;;;;;;;;;26.25;22.50;;;;;10.82;88.00;101341.09;5062030;28;45487;-63
2021/10/28 05:50:10;;;;;;;;;22.25;20.75;;;;;10.82;87.83;101338.47;5059550;28;45276;-62
2021/10/28 05:52:35;;;;;;;;;24.75;20.75;;;;;10.82;88.14;101337.63;5060815;28;45800;-61
2021/10/28 05:55:03;;;;;;;;;23.75;18.50;;;;;10.81;88.61;101335.88;5061084;28;45287;-62
2021/10/28 05:57:30;;;;;;;;;26.25;21.75;;;;;10.82;88.38;101340.22;5059979;28;45455;-61
2021/10/28 05:59:56;;;;;;;;;26.75;22.00;;;;;10.80;88.16;101337.63;5048067;28;47015;-61
2021/10/28 06:02:21;;;;;;;;;21.75;20.75;;;;;10.80;88.03;101331.56;5060538;28;45292;-61
2021/10/28 06:04:47;;;;;;;;;24.00;22.50;;;;;10.77;88.09;101326.44;5059142;28;45556;-61
2021/10/28 06:07:12;;;;;;;;;28.25;18.00;;;;;10.74;88.09;101321.28;5060906;28;45311;-61
2021/10/28 06:09:38;;;;;;;;;29.25;24.50;;;;;10.73;88.13;101327.38;5060565;28;45394;-62
2021/10/28 06:12:05;;;;;;;;;41.50;24.25;;;;;10.73;88.27;101335.19;5060923;28;45280;-64
2021/10/28 06:14:32;;;;;;;;;24.25;19.25;;;;;10.72;88.05;101325.66;5060658;28;45529;-59
2021/10/28 06:17:06;;;;;;;;;24.00;20.50;;;;;10.70;88.06;101333.50;5060582;28;45570;-58
2021/10/28 06:19:32;;;;;;;;;20.50;17.50;;;;;10.67;87.84;101333.56;5060459;28;45455;-58
2021/10/28 06:21:57;;;;;;;;;32.00;22.00;;;;;10.65;87.98;101333.59;5060352;28;45319;-58
2021/10/28 06:24:22;;;;;;;;;26.75;22.00;;;;;10.64;88.06;101329.28;5053654;28;45243;-59
2021/10/28 06:26:48;;;;;;;;;32.75;22.00;;;;;10.61;87.95;101334.53;5060267;28;45304;-59
2021/10/28 06:29:13;;;;;;;;;26.25;22.00;;;;;10.60;88.18;101334.53;5060036;28;46316;-60
2021/10/28 06:31:39;;;;;;;;;22.75;16.75;;;;;10.60;88.14;101337.13;5059959;28;45486;-58
2021/10/28 06:34:09;;;;;;;;;28.00;21.00;;;;;10.61;88.15;101339.72;5060291;28;45322;-59
2021/10/28 06:36:36;;;;;;;;;26.25;22.25;;;;;10.59;88.23;101331.06;5050030;28;45407;-59
2021/10/28 06:39:03;;;;;;;;;27.75;21.75;;;;;10.62;88.32;101333.66;5058662;28;46308;-59
2021/10/28 06:41:30;;;;;;;;;27.50;22.75;;;;;10.62;88.32;101338.84;5059462;28;45867;-59
2021/10/28 06:43:56;;;;;;;;;18.75;18.25;;;;;10.66;87.98;101347.44;5060146;28;45354;-59
2021/10/28 06:46:21;;;;;;;;;66.75;53.50;;;;;10.66;87.93;101342.25;5060925;28;45450;-59
2021/10/28 06:48:46;;;;;;;;;23.75;20.00;;;;;10.66;87.59;101345.69;5061106;28;46098;-59
2021/10/28 06:51:12;;;;;;;;;24.00;23.50;;;;;10.68;88.14;101343.06;5059495;28;46376;-59
2021/10/28 07:04:33;;;;;;;;;26.75;20.50;;;;;10.74;87.63;101348.16;5056427;28;45358;-58
2021/10/28 07:06:59;;;;;;;;;36.75;31.75;;;;;10.78;87.63;101347.19;5059406;28;45333;-59
2021/10/28 07:09:32;;;;;;;;;33.00;26.00;;;;;10.80;87.68;101348.03;5059061;28;45880;-59
2021/10/28 07:12:44;;;;;;;;;34.50;24.50;;;;;10.84;87.52;101343.66;5059155;28;45584;-60
2021/10/28 07:14:50;;;;;;;;;22.00;21.50;;;;;10.82;86.99;101328.09;5045151;28;45284;-59
2021/10/28 07:17:30;;;;;;;;;26.00;21.00;;;;;10.89;87.16;101337.47;5060837;28;45236;-59
2021/10/28 07:57:36;;;;;;;;;31.00;26.25;;;;;11.75;83.89;101352.13;5058913;28;45311;-58
2021/10/28 08:00:20;;;;;;;;;33.25;26.00;;;;;11.79;83.78;101339.94;5057352;28;45346;-59
2021/10/28 08:21:55;;;;;;;;;34.50;29.00;;;;;12.17;81.88;101328.59;5061930;28;45479;-60
2021/10/28 08:29:48;;;;;;;;;27.75;25.25;;;;;12.40;81.00;101315.00;5050836;28;45341;-61
2021/10/28 08:32:15;;;;;;;;;33.25;26.25;;;;;12.49;80.86;101320.00;5062331;28;45328;-60
2021/10/28 08:34:41;;;;;;;;;32.00;29.50;;;;;12.61;80.33;101326.63;5058073;28;46140;-58
2021/10/28 08:39:34;;;;;;;;;23.00;15.75;;;;;12.73;79.58;101313.25;5052260;28;45269;-60
2021/10/28 08:42:05;;;;;;;;;29.00;24.50;;;;;12.82;79.65;101314.78;5062002;28;45413;-61
2021/10/28 08:44:32;;;;;;;;;26.75;23.75;;;;;12.89;79.32;101301.50;5062076;28;47015;-61
2021/10/28 08:46:59;;;;;;;;;28.00;22.00;;;;;12.98;78.48;101308.22;5063174;28;45291;-59
2021/10/28 08:49:32;;;;;;;;;25.00;20.00;;;;;13.02;78.09;101310.72;5062025;28;45323;-58
2021/10/28 08:59:36;;;;;;;;;27.00;23.25;;;;;13.30;76.77;101295.13;5060522;28;45287;-59
2021/10/28 09:25:21;;;;;;;;;27.00;21.75;;;;;13.96;74.25;101256.47;5053890;28;45438;-59
2021/10/28 09:31:00;;;;;;;;;24.00;21.00;;;;;14.19;72.95;101250.47;5059674;28;45391;-60
2021/10/28 09:34:19;;;;;;;;;17.50;17.50;;;;;14.31;72.96;101242.22;5061277;28;45251;-62
2021/10/28 09:45:33;;;;;;;;;24.75;24.50;;;;;17.32;67.12;101225.47;5060635;28;45335;-58
2021/10/28 09:50:30;;;;;;;;;24.75;23.50;;;;;17.07;66.08;101230.19;5060783;28;45361;-58
2021/10/28 09:53:27;;;;;;;;;28.75;23.50;;;;;16.97;66.40;101232.38;5060818;28;45282;-58
2021/10/28 09:58:38;;;;;;;;;27.00;24.00;;;;;17.38;65.62;101226.94;5052154;28;45454;-57
2021/10/28 10:01:06;;;;;;;;;27.25;23.25;;;;;17.87;64.80;101228.94;5060095;28;45307;-58
2021/10/28 10:03:37;;;;;;;;;25.75;22.75;;;;;18.95;64.10;101232.94;5056080;28;45765;-58
2021/10/28 10:06:04;;;;;;;;;24.25;20.00;;;;;19.70;60.93;101234.06;5060606;28;45283;-58
2021/10/28 10:08:32;;;;;;;;;25.25;21.75;;;;;19.58;59.76;101238.22;5060367;28;45402;-58
2021/10/28 10:10:58;;;;;;;;;25.00;24.00;;;;;19.15;59.98;101243.25;5056650;28;46268;-58
2021/10/28 10:13:25;;;;;;;;;26.50;23.50;;;;;18.79;59.97;101221.53;5060252;28;45406;-58
2021/10/28 10:16:04;;;;;;;;;25.75;22.50;;;;;18.61;59.25;101218.06;5059684;28;45293;-58
2021/10/28 10:18:38;;;;;;;;;25.00;21.00;;;;;18.75;59.63;101206.84;5059322;28;45389;-58
2021/10/28 10:21:15;;;;;;;;;20.00;19.50;;;;;19.29;59.62;101208.22;5059953;28;46067;-58
2021/10/28 10:28:35;;;;;;;;;25.25;23.75;;;;;19.99;57.17;101193.63;5049769;28;45426;-59
2021/10/28 11:23:05;;;;;;;;;17.00;14.75;;;;;22.65;46.46;101134.78;5059102;28;45710;-60
2021/10/28 12:23:51;;;;;;;;;20.25;16.00;;;;;18.77;54.74;101029.41;5051163;28;46031;-61
2021/10/28 12:43:25;;;;;;;;;19.75;16.75;;;;;18.80;54.83;101005.53;5062160;28;45228;-60
2021/10/28 12:45:50;;;;;;;;;13.50;12.00;;;;;18.81;55.10;100972.13;5060666;28;45332;-58
2021/10/28 14:26:10;;;;;;;;;15.25;9.75;;;;;19.30;51.65;100845.41;5056805;28;45319;-59
2021/10/28 15:30:32;;;;;;;;;8.25;6.25;;;;;28.64;39.10;100804.06;5056702;28;45874;-48
2021/10/28 15:33:49;;;;;;;;;12.00;8.50;;;;;29.91;37.82;100797.72;5056603;28;45653;-52
2021/10/28 15:36:13;;;;;;;;;14.25;10.25;;;;;30.92;36.32;100791.97;5052318;28;45462;-50
2021/10/28 15:57:29;;;;;;;;;7.00;6.75;;;;;30.94;31.62;100770.31;5058051;28;45369;-63
2021/10/28 16:23:47;;;;;;;;;9.50;8.25;;;;;24.37;35.03;100737.56;5046764;28;45395;-59
2021/10/28 16:26:13;;;;;;;;;9.25;7.75;;;;;23.30;36.28;100734.00;5048554;28;45382;-64
2021/10/28 16:28:38;;;;;;;;;8.50;7.50;;;;;22.34;37.58;100730.13;5046024;28;45432;-62
2021/10/28 16:31:04;;;;;;;;;10.00;8.25;;;;;21.56;38.84;100731.50;5042518;28;46458;-62
2021/10/28 16:33:29;;;;;;;;;11.50;10.00;;;;;20.98;39.70;100733.97;5057222;28;46021;-61
2021/10/28 16:35:55;;;;;;;;;8.00;6.50;;;;;20.47;40.88;100728.78;5060050;28;45438;-61
2021/10/28 16:38:23;;;;;;;;;9.75;9.75;;;;;20.06;41.67;100732.41;5052558;28;45462;-60
2021/10/28 16:40:48;;;;;;;;;9.75;8.25;;;;;19.72;42.74;100726.72;5050693;28;45649;-61
2021/10/28 16:43:14;;;;;;;;;8.75;8.00;;;;;19.44;42.87;100718.88;5049383;28;45814;-59
2021/10/28 16:45:39;;;;;;;;;10.50;8.50;;;;;19.16;43.82;100719.78;5050661;28;45465;-61
2021/10/28 16:48:07;;;;;;;;;7.50;7.50;;;;;18.95;44.53;100714.09;5050382;28;45958;-59
2021/10/28 16:50:33;;;;;;;;;14.00;11.00;;;;;18.73;44.99;100722.47;5062314;28;45288;-59
2021/10/28 16:52:58;;;;;;;;;10.25;8.75;;;;;18.54;45.71;100722.72;5061670;28;46268;-61
2021/10/28 16:55:24;;;;;;;;;11.00;10.00;;;;;18.42;46.04;100717.34;5060425;28;45409;-60
2021/10/28 16:57:49;;;;;;;;;11.50;11.50;;;;;18.28;46.41;100712.09;5061828;28;45365;-60
2021/10/28 17:00:16;;;;;;;;;14.00;12.75;;;;;18.17;46.84;100716.19;5061636;28;45501;-60
2021/10/28 17:02:42;;;;;;;;;14.00;11.75;;;;;18.07;47.53;100716.84;5059630;28;46316;-58
2021/10/28 17:05:09;;;;;;;;;11.75;10.00;;;;;17.96;47.56;100708.72;5061838;28;45267;-56
2021/10/28 17:07:35;;;;;;;;;11.25;9.25;;;;;17.87;48.20;100715.38;5061731;28;45378;-60
2021/10/28 17:10:03;;;;;;;;;15.00;12.50;;;;;17.79;48.09;100721.06;5060864;28;45452;-60
2021/10/28 17:12:29;;;;;;;;;13.00;9.25;;;;;17.70;48.79;100718.97;5047351;28;46227;-59
2021/10/28 17:14:54;;;;;;;;;13.25;11.00;;;;;17.59;48.87;100713.44;5052417;28;45414;-60
2021/10/28 17:17:19;;;;;;;;;10.75;10.50;;;;;17.58;49.37;100723.09;5050313;28;45438;-60
2021/10/28 17:19:47;;;;;;;;;16.00;12.00;;;;;17.52;49.64;100725.25;5048731;28;45307;-59
2021/10/28 17:22:12;;;;;;;;;12.25;11.00;;;;;17.48;49.91;100726.34;5050379;28;47267;-60
2021/10/28 17:24:45;;;;;;;;;13.25;10.00;;;;;17.41;49.96;100717.09;5052457;28;45344;-59
2021/10/28 17:27:10;;;;;;;;;13.50;10.50;;;;;17.36;50.31;100714.75;5061303;28;45361;-59
2021/10/28 17:29:37;;;;;;;;;12.25;12.00;;;;;17.28;50.83;100712.56;5052173;28;45417;-60
2021/10/28 17:32:03;;;;;;;;;12.75;11.50;;;;;17.25;51.44;100717.97;5043470;28;47851;-59
2021/10/28 17:34:28;;;;;;;;;13.00;9.50;;;;;17.18;51.47;100719.22;5053463;28;45400;-59
2021/10/28 17:36:55;;;;;;;;;14.25;12.25;;;;;17.15;51.52;100716.78;5051964;28;46050;-60
2021/10/28 17:39:22;;;;;;;;;12.50;11.75;;;;;17.10;51.91;100715.34;5049511;28;45298;-59
2021/10/28 17:41:49;;;;;;;;;14.25;12.25;;;;;17.09;52.19;100718.91;5048652;28;46356;-59
2021/10/28 17:44:15;;;;;;;;;11.00;11.00;;;;;17.03;52.61;100710.44;5048929;28;45588;-59
2021/10/28 17:46:41;;;;;;;;;21.25;13.75;;;;;17.01;52.40;100719.31;5050380;28;45446;-59
2021/10/28 17:49:06;;;;;;;;;19.25;17.00;;;;;16.97;52.93;100721.25;5050718;28;45598;-58
2021/10/28 17:51:35;;;;;;;;;17.25;15.25;;;;;16.95;53.07;100723.13;5048266;28;46084;-59
2021/10/28 17:54:02;;;;;;;;;25.75;15.25;;;;;16.93;53.46;100719.72;5056410;28;45461;-59
2021/10/28 17:56:28;;;;;;;;;17.75;16.50;;;;;16.90;53.45;100711.19;5050353;28;45609;-59
2021/10/28 17:58:56;;;;;;;;;20.25;14.75;;;;;16.88;53.76;100716.50;5049745;28;45454;-58
2021/10/28 18:01:22;;;;;;;;;14.75;14.25;;;;;16.86;53.62;100723.63;5042279;28;48166;-59
2021/10/28 18:03:48;;;;;;;;;16.75;15.00;;;;;16.83;54.17;100718.56;5051857;28;45286;-59
2021/10/28 18:06:13;;;;;;;;;18.00;14.50;;;;;16.80;54.31;100712.59;5050367;28;45521;-58
2021/10/28 18:08:39;;;;;;;;;16.00;14.25;;;;;16.77;54.44;100710.97;5056304;28;45198;-58
2021/10/28 18:11:04;;;;;;;;;15.25;13.00;;;;;16.76;54.54;100716.31;5057000;28;45471;-58
2021/10/28 18:13:30;;;;;;;;;17.25;13.75;;;;;16.72;54.63;100708.63;5059980;28;45371;-58
2021/10/28 18:15:55;;;;;;;;;20.50;14.00;;;;;16.71;54.91;100713.94;5059442;28;45387;-59
2021/10/28 18:18:20;;;;;;;;;17.25;12.75;;;;;16.65;55.26;100715.09;5055560;28;45333;-57
2021/10/28 18:20:46;;;;;;;;;15.50;12.50;;;;;16.62;55.44;100707.38;5049199;28;45415;-58
2021/10/28 18:23:11;;;;;;;;;17.50;14.00;;;;;16.61;55.62;100715.31;5052896;28;45681;-57
2021/10/28 18:25:36;;;;;;;;;12.50;12.00;;;;;16.60;55.67;100709.22;5051824;28;45610;-58
2021/10/28 18:28:02;;;;;;;;;14.50;14.00;;;;;16.52;56.07;100695.66;5051234;28;45342;-63
2021/10/28 18:30:29;;;;;;;;;17.25;13.50;;;;;16.55;55.86;100703.38;5060029;28;46402;-57
2021/10/28 18:32:58;;;;;;;;;19.00;14.25;;;;;16.52;56.11;100703.53;5060542;28;45613;-58
2021/10/28 18:35:23;;;;;;;;;23.00;17.75;;;;;16.51;56.18;100704.47;5058473;28;45409;-56
2021/10/28 18:37:49;;;;;;;;;12.75;12.75;;;;;16.49;56.23;100702.84;5051024;28;45393;-56
2021/10/28 18:40:16;;;;;;;;;18.25;16.00;;;;;16.46;56.56;100703.03;5059804;28;45948;-56
2021/10/28 18:42:44;;;;;;;;;21.50;16.50;;;;;16.44;56.56;100705.72;5049693;28;45811;-57
2021/10/28 18:45:10;;;;;;;;;15.50;13.00;;;;;16.43;56.56;100701.41;5050826;28;45602;-57
2021/10/28 18:47:36;;;;;;;;;19.00;17.50;;;;;16.41;56.65;100698.84;5057798;28;45173;-57
2021/10/28 18:50:04;;;;;;;;;25.25;20.50;;;;;16.39;56.64;100690.22;5055790;28;46258;-57
2021/10/28 18:52:30;;;;;;;;;18.00;13.00;;;;;16.35;56.99;100686.06;5047654;28;45833;-57
2021/10/28 18:54:55;;;;;;;;;12.00;12.00;;;;;16.34;57.20;100694.84;5050513;28;45483;-56
2021/10/28 18:57:21;;;;;;;;;21.50;16.50;;;;;16.31;57.20;100684.53;5050999;28;45322;-56
2021/10/28 18:59:48;;;;;;;;;14.00;12.50;;;;;16.29;57.46;100680.28;5052431;28;46934;-56
2021/10/28 19:02:17;;;;;;;;;16.50;15.50;;;;;16.27;57.52;100687.41;5052932;28;45936;-57
2021/10/28 19:04:42;;;;;;;;;18.00;15.00;;;;;16.26;57.79;100680.47;5054852;28;45752;-57
2021/10/28 19:07:09;;;;;;;;;15.50;14.00;;;;;16.20;57.45;100665.03;5060371;28;45232;-60
2021/10/28 19:09:35;;;;;;;;;17.00;16.00;;;;;16.18;58.03;100662.47;5059770;28;46108;-59
2021/10/28 19:12:00;;;;;;;;;22.00;18.25;;;;;16.20;57.95;100671.09;5059877;28;45322;-60
2021/10/28 19:14:26;;;;;;;;;9.25;7.50;;;;;16.19;57.79;100677.28;5059818;28;45371;-58
2021/10/28 19:16:53;;;;;;;;;16.75;15.50;;;;;16.17;58.24;100662.56;5059930;28;45355;-57
2021/10/28 19:19:19;;;;;;;;;18.50;17.00;;;;;16.15;58.25;100659.19;5059036;28;46261;-57
2021/10/28 19:21:44;;;;;;;;;18.00;13.75;;;;;16.13;58.43;100660.09;5058381;28;45441;-56
2021/10/28 19:24:10;;;;;;;;;20.25;17.25;;;;;16.12;58.44;100661.03;5050928;28;45919;-56
2021/10/28 19:26:35;;;;;;;;;19.75;14.50;;;;;16.10;58.59;100657.66;5059726;28;45208;-56
2021/10/28 19:29:04;;;;;;;;;18.00;17.50;;;;;16.08;58.76;100659.50;5059065;28;46203;-57
2021/10/28 19:31:32;;;;;;;;;16.50;15.25;;;;;16.05;58.78;100656.19;5059544;28;45768;-56
2021/10/28 19:34:00;;;;;;;;;13.75;12.50;;;;;16.03;58.69;100652.81;5059471;28;45367;-57
2021/10/28 19:42:32;;;;;;;;;20.00;16.75;;;;;15.96;59.30;100644.38;5055998;28;45196;-58
2021/10/28 19:47:12;;;;;;;;;31.00;26.50;;;;;15.88;59.54;100643.09;5058384;28;45307;-57
2021/10/28 19:49:37;;;;;;;;;17.00;16.25;;;;;15.84;59.59;100629.31;5051310;28;46186;-57
2021/10/28 19:52:06;;;;;;;;;19.75;16.75;;;;;15.81;59.84;100634.69;5059257;28;45326;-57
2021/10/28 19:54:32;;;;;;;;;17.50;15.75;;;;;15.78;60.00;100637.47;5059403;28;45187;-57
2021/10/28 19:56:57;;;;;;;;;18.25;15.00;;;;;15.72;60.14;100638.63;5059385;28;45240;-56
2021/10/28 19:59:27;;;;;;;;;19.00;15.00;;;;;15.72;60.11;100638.63;5057718;28;45323;-57
2021/10/28 20:01:56;;;;;;;;;21.25;17.75;;;;;15.69;60.37;100632.69;5058903;28;45395;-58